Terminal Aerodrome Forecast
Issued by NWS Mt. Holly, NJ

Home | Current Version | Previous Version | Text Only | Print | Product List | Glossary On
Versions: 1 2 3 4 5 6 7 8 9 10 11 12 13 14 15 16 17
000
FTUS41 KPHI 200520
TAFRDG
TAF
KRDG 200520Z 2006/2106 VRB03KT P6SM SKC
     FM200800 VRB03KT P6SM SKC WS020/26040KT
     FM201500 27005KT P6SM SKC
     FM201800 27010G16KT P6SM SKC
     FM202300 VRB03KT P6SM BKN250=

USA.gov is the U.S. government's official web portal to all federal, state and local government web resources and services.